sensor_id;sensor_type;location;lat;lon;timestamp;P1;durP1;ratioP1;P2;durP2;ratioP2
25509;SDS011;13413;52.336;21.200;2022-10-17T00:01:52;30.70;;;23.30;;
25509;SDS011;13413;52.336;21.200;2022-10-17T00:05:26;28.60;;;22.90;;
25509;SDS011;13413;52.336;21.200;2022-10-17T00:08:46;29.20;;;23.40;;
25509;SDS011;13413;52.336;21.200;2022-10-17T00:12:06;32.10;;;22.50;;
25509;SDS011;13413;52.336;21.200;2022-10-17T00:15:33;28.20;;;22.60;;
25509;SDS011;13413;52.336;21.200;2022-10-17T00:19:06;26.30;;;22.60;;
25509;SDS011;13413;52.336;21.200;2022-10-17T00:22:33;29.70;;;21.80;;
25509;SDS011;13413;52.336;21.200;2022-10-17T00:26:00;27.70;;;22.40;;
25509;SDS011;13413;52.336;21.200;2022-10-17T00:29:21;27.70;;;23.10;;
25509;SDS011;13413;52.336;21.200;2022-10-17T00:32:41;27.30;;;23.00;;
25509;SDS011;13413;52.336;21.200;2022-10-17T00:36:03;31.40;;;24.70;;
25509;SDS011;13413;52.336;21.200;2022-10-17T00:39:24;27.60;;;23.50;;
25509;SDS011;13413;52.336;21.200;2022-10-17T00:42:44;33.80;;;25.90;;
25509;SDS011;13413;52.336;21.200;2022-10-17T00:46:04;30.50;;;22.70;;
25509;SDS011;13413;52.336;21.200;2022-10-17T00:49:33;29.20;;;22.90;;
25509;SDS011;13413;52.336;21.200;2022-10-17T00:53:09;29.70;;;23.70;;
25509;SDS011;13413;52.336;21.200;2022-10-17T00:56:29;27.90;;;22.60;;
25509;SDS011;13413;52.336;21.200;2022-10-17T00:59:50;29.10;;;22.70;;
25509;SDS011;13413;52.336;21.200;2022-10-17T01:03:26;32.80;;;24.10;;
25509;SDS011;13413;52.336;21.200;2022-10-17T01:06:46;28.80;;;25.00;;
25509;SDS011;13413;52.336;21.200;2022-10-17T01:10:16;29.10;;;23.50;;
25509;SDS011;13413;52.336;21.200;2022-10-17T01:13:40;28.00;;;23.40;;
25509;SDS011;13413;52.336;21.200;2022-10-17T01:20:48;32.20;;;22.50;;
25509;SDS011;13413;52.336;21.200;2022-10-17T01:24:30;33.00;;;26.00;;
25509;SDS011;13413;52.336;21.200;2022-10-17T01:28:11;30.80;;;24.30;;
25509;SDS011;13413;52.336;21.200;2022-10-17T01:31:47;32.80;;;24.80;;
25509;SDS011;13413;52.336;21.200;2022-10-17T01:35:24;32.40;;;24.90;;
25509;SDS011;13413;52.336;21.200;2022-10-17T01:39:03;31.00;;;25.80;;
25509;SDS011;13413;52.336;21.200;2022-10-17T01:42:40;33.80;;;26.30;;
25509;SDS011;13413;52.336;21.200;2022-10-17T01:46:06;32.70;;;23.40;;
25509;SDS011;13413;52.336;21.200;2022-10-17T01:49:47;32.50;;;26.50;;
25509;SDS011;13413;52.336;21.200;2022-10-17T01:53:26;36.80;;;25.60;;
25509;SDS011;13413;52.336;21.200;2022-10-17T01:56:57;29.90;;;25.30;;
25509;SDS011;13413;52.336;21.200;2022-10-17T02:00:28;35.20;;;25.60;;
25509;SDS011;13413;52.336;21.200;2022-10-17T02:04:04;33.50;;;25.70;;
25509;SDS011;13413;52.336;21.200;2022-10-17T02:07:32;33.30;;;26.60;;
25509;SDS011;13413;52.336;21.200;2022-10-17T02:11:01;37.30;;;27.90;;
25509;SDS011;13413;52.336;21.200;2022-10-17T02:14:37;33.60;;;26.40;;
25509;SDS011;13413;52.336;21.200;2022-10-17T02:18:14;37.60;;;25.50;;
25509;SDS011;13413;52.336;21.200;2022-10-17T02:29:54;36.90;;;29.40;;
25509;SDS011;13413;52.336;21.200;2022-10-17T02:36:40;35.50;;;28.10;;
25509;SDS011;13413;52.336;21.200;2022-10-17T02:40:16;37.50;;;28.30;;
25509;SDS011;13413;52.336;21.200;2022-10-17T02:43:41;32.80;;;26.60;;
25509;SDS011;13413;52.336;21.200;2022-10-17T02:47:02;40.00;;;29.00;;
25509;SDS011;13413;52.336;21.200;2022-10-17T02:50:36;37.50;;;28.40;;
25509;SDS011;13413;52.336;21.200;2022-10-17T02:54:14;39.70;;;28.00;;
25509;SDS011;13413;52.336;21.200;2022-10-17T02:57:45;38.50;;;29.10;;
25509;SDS011;13413;52.336;21.200;2022-10-17T03:01:16;40.70;;;29.60;;
25509;SDS011;13413;52.336;21.200;2022-10-17T03:04:38;35.70;;;28.20;;
25509;SDS011;13413;52.336;21.200;2022-10-17T03:08:02;35.90;;;29.20;;
25509;SDS011;13413;52.336;21.200;2022-10-17T03:11:21;38.70;;;29.00;;
25509;SDS011;13413;52.336;21.200;2022-10-17T03:14:55;38.60;;;26.40;;
25509;SDS011;13413;52.336;21.200;2022-10-17T03:18:29;36.20;;;29.20;;
25509;SDS011;13413;52.336;21.200;2022-10-17T03:21:50;33.80;;;27.80;;
25509;SDS011;13413;52.336;21.200;2022-10-17T03:25:17;35.10;;;27.30;;
25509;SDS011;13413;52.336;21.200;2022-10-17T03:28:37;33.90;;;27.80;;
25509;SDS011;13413;52.336;21.200;2022-10-17T03:31:55;32.80;;;26.70;;
25509;SDS011;13413;52.336;21.200;2022-10-17T03:35:14;37.90;;;27.50;;
25509;SDS011;13413;52.336;21.200;2022-10-17T03:39:56;38.10;;;28.00;;
25509;SDS011;13413;52.336;21.200;2022-10-17T03:43:15;32.90;;;27.10;;
25509;SDS011;13413;52.336;21.200;2022-10-17T03:46:34;37.30;;;27.20;;
25509;SDS011;13413;52.336;21.200;2022-10-17T03:50:08;42.00;;;29.80;;
25509;SDS011;13413;52.336;21.200;2022-10-17T03:53:41;36.50;;;29.40;;
25509;SDS011;13413;52.336;21.200;2022-10-17T03:57:01;36.50;;;29.60;;
25509;SDS011;13413;52.336;21.200;2022-10-17T04:05:02;45.80;;;32.30;;
25509;SDS011;13413;52.336;21.200;2022-10-17T04:08:22;43.10;;;32.20;;
25509;SDS011;13413;52.336;21.200;2022-10-17T04:11:47;39.80;;;33.10;;
25509;SDS011;13413;52.336;21.200;2022-10-17T04:15:19;43.70;;;33.10;;
25509;SDS011;13413;52.336;21.200;2022-10-17T04:18:38;38.50;;;30.80;;
25509;SDS011;13413;52.336;21.200;2022-10-17T04:21:57;43.90;;;34.00;;
25509;SDS011;13413;52.336;21.200;2022-10-17T04:25:22;45.70;;;32.60;;
25509;SDS011;13413;52.336;21.200;2022-10-17T04:28:55;39.40;;;32.80;;
25509;SDS011;13413;52.336;21.200;2022-10-17T04:32:14;40.30;;;32.50;;
25509;SDS011;13413;52.336;21.200;2022-10-17T04:35:39;40.70;;;33.40;;
25509;SDS011;13413;52.336;21.200;2022-10-17T04:38:57;39.80;;;31.00;;
25509;SDS011;13413;52.336;21.200;2022-10-17T04:42:16;43.40;;;32.70;;
25509;SDS011;13413;52.336;21.200;2022-10-17T04:45:34;47.00;;;32.30;;
25509;SDS011;13413;52.336;21.200;2022-10-17T04:48:53;42.20;;;32.00;;
25509;SDS011;13413;52.336;21.200;2022-10-17T04:52:12;42.50;;;31.90;;
25509;SDS011;13413;52.336;21.200;2022-10-17T04:55:44;40.40;;;29.60;;
25509;SDS011;13413;52.336;21.200;2022-10-17T04:59:02;45.80;;;32.00;;
25509;SDS011;13413;52.336;21.200;2022-10-17T05:02:21;42.90;;;31.60;;
25509;SDS011;13413;52.336;21.200;2022-10-17T05:05:38;37.80;;;31.80;;
25509;SDS011;13413;52.336;21.200;2022-10-17T05:08:58;43.40;;;32.80;;
25509;SDS011;13413;52.336;21.200;2022-10-17T05:12:29;53.90;;;32.10;;
25509;SDS011;13413;52.336;21.200;2022-10-17T05:15:46;42.90;;;31.60;;
25509;SDS011;13413;52.336;21.200;2022-10-17T05:25:08;39.70;;;30.90;;
25509;SDS011;13413;52.336;21.200;2022-10-17T05:28:27;79.00;;;51.70;;
25509;SDS011;13413;52.336;21.200;2022-10-17T05:31:54;80.80;;;58.70;;
25509;SDS011;13413;52.336;21.200;2022-10-17T05:48:55;63.40;;;40.70;;
25509;SDS011;13413;52.336;21.200;2022-10-17T05:52:15;54.50;;;38.40;;
25509;SDS011;13413;52.336;21.200;2022-10-17T05:55:42;54.60;;;38.40;;
25509;SDS011;13413;52.336;21.200;2022-10-17T06:09:34;43.20;;;36.10;;
25509;SDS011;13413;52.336;21.200;2022-10-17T06:12:54;53.70;;;40.40;;
25509;SDS011;13413;52.336;21.200;2022-10-17T06:16:14;49.70;;;38.40;;
25509;SDS011;13413;52.336;21.200;2022-10-17T06:19:46;51.30;;;41.30;;
25509;SDS011;13413;52.336;21.200;2022-10-17T06:25:40;52.40;;;41.90;;
25509;SDS011;13413;52.336;21.200;2022-10-17T06:29:01;57.50;;;39.80;;
25509;SDS011;13413;52.336;21.200;2022-10-17T06:32:21;51.80;;;37.70;;
25509;SDS011;13413;52.336;21.200;2022-10-17T06:35:42;52.80;;;38.10;;
25509;SDS011;13413;52.336;21.200;2022-10-17T06:42:35;51.60;;;40.10;;
25509;SDS011;13413;52.336;21.200;2022-10-17T06:45:56;54.20;;;40.50;;
25509;SDS011;13413;52.336;21.200;2022-10-17T06:49:16;53.50;;;40.80;;
25509;SDS011;13413;52.336;21.200;2022-10-17T06:52:36;50.50;;;40.80;;
25509;SDS011;13413;52.336;21.200;2022-10-17T06:55:56;53.50;;;41.10;;
25509;SDS011;13413;52.336;21.200;2022-10-17T07:00:50;56.60;;;41.50;;
25509;SDS011;13413;52.336;21.200;2022-10-17T07:04:10;48.50;;;39.10;;
25509;SDS011;13413;52.336;21.200;2022-10-17T07:10:54;49.50;;;38.00;;
25509;SDS011;13413;52.336;21.200;2022-10-17T07:20:16;46.30;;;39.10;;
25509;SDS011;13413;52.336;21.200;2022-10-17T07:23:36;51.70;;;38.60;;
25509;SDS011;13413;52.336;21.200;2022-10-17T07:26:55;49.30;;;39.00;;
25509;SDS011;13413;52.336;21.200;2022-10-17T07:39:26;52.40;;;38.20;;
25509;SDS011;13413;52.336;21.200;2022-10-17T07:42:47;44.80;;;37.60;;
25509;SDS011;13413;52.336;21.200;2022-10-17T07:46:07;44.80;;;36.20;;
25509;SDS011;13413;52.336;21.200;2022-10-17T07:49:42;47.90;;;36.80;;
25509;SDS011;13413;52.336;21.200;2022-10-17T08:03:24;48.30;;;35.90;;
25509;SDS011;13413;52.336;21.200;2022-10-17T08:06:43;43.50;;;33.70;;
25509;SDS011;13413;52.336;21.200;2022-10-17T08:10:17;48.80;;;34.10;;
25509;SDS011;13413;52.336;21.200;2022-10-17T08:13:50;41.10;;;34.10;;
25509;SDS011;13413;52.336;21.200;2022-10-17T08:17:10;43.30;;;35.20;;
25509;SDS011;13413;52.336;21.200;2022-10-17T08:29:43;39.90;;;32.80;;
25509;SDS011;13413;52.336;21.200;2022-10-17T08:33:03;39.10;;;32.20;;
25509;SDS011;13413;52.336;21.200;2022-10-17T08:36:22;42.30;;;32.00;;
25509;SDS011;13413;52.336;21.200;2022-10-17T08:39:56;38.10;;;32.50;;
25509;SDS011;13413;52.336;21.200;2022-10-17T08:43:19;42.80;;;31.10;;
25509;SDS011;13413;52.336;21.200;2022-10-17T08:46:49;42.70;;;31.90;;
25509;SDS011;13413;52.336;21.200;2022-10-17T08:50:13;38.10;;;31.60;;
25509;SDS011;13413;52.336;21.200;2022-10-17T08:53:38;41.70;;;32.40;;
25509;SDS011;13413;52.336;21.200;2022-10-17T08:57:01;39.30;;;31.10;;
25509;SDS011;13413;52.336;21.200;2022-10-17T09:00:21;39.00;;;31.20;;
25509;SDS011;13413;52.336;21.200;2022-10-17T09:03:44;36.90;;;30.90;;
25509;SDS011;13413;52.336;21.200;2022-10-17T09:07:26;40.60;;;31.30;;
25509;SDS011;13413;52.336;21.200;2022-10-17T09:10:54;38.60;;;30.30;;
25509;SDS011;13413;52.336;21.200;2022-10-17T09:24:51;35.60;;;28.40;;
25509;SDS011;13413;52.336;21.200;2022-10-17T09:28:14;31.10;;;26.80;;
25509;SDS011;13413;52.336;21.200;2022-10-17T09:31:39;32.90;;;24.80;;
25509;SDS011;13413;52.336;21.200;2022-10-17T09:35:15;29.20;;;23.70;;
25509;SDS011;13413;52.336;21.200;2022-10-17T09:38:51;28.90;;;25.50;;
25509;SDS011;13413;52.336;21.200;2022-10-17T09:42:13;30.90;;;25.10;;
25509;SDS011;13413;52.336;21.200;2022-10-17T09:50:21;32.10;;;25.60;;
25509;SDS011;13413;52.336;21.200;2022-10-17T09:53:45;29.70;;;25.70;;
25509;SDS011;13413;52.336;21.200;2022-10-17T09:57:11;26.90;;;23.30;;
25509;SDS011;13413;52.336;21.200;2022-10-17T10:13:43;33.70;;;25.40;;
25509;SDS011;13413;52.336;21.200;2022-10-17T10:17:08;29.80;;;23.40;;
25509;SDS011;13413;52.336;21.200;2022-10-17T10:20:45;26.60;;;22.80;;
25509;SDS011;13413;52.336;21.200;2022-10-17T10:24:33;29.10;;;21.70;;
25509;SDS011;13413;52.336;21.200;2022-10-17T10:27:53;34.90;;;23.60;;
25509;SDS011;13413;52.336;21.200;2022-10-17T10:34:47;25.80;;;22.20;;
25509;SDS011;13413;52.336;21.200;2022-10-17T10:38:12;21.90;;;19.70;;
25509;SDS011;13413;52.336;21.200;2022-10-17T10:41:45;24.40;;;21.30;;
25509;SDS011;13413;52.336;21.200;2022-10-17T10:45:13;23.20;;;20.70;;
25509;SDS011;13413;52.336;21.200;2022-10-17T10:59:08;24.50;;;20.00;;
25509;SDS011;13413;52.336;21.200;2022-10-17T11:02:41;23.00;;;19.40;;
25509;SDS011;13413;52.336;21.200;2022-10-17T11:06:12;22.50;;;19.70;;
25509;SDS011;13413;52.336;21.200;2022-10-17T11:09:47;22.10;;;18.90;;
25509;SDS011;13413;52.336;21.200;2022-10-17T11:13:14;22.10;;;18.20;;
25509;SDS011;13413;52.336;21.200;2022-10-17T11:16:40;22.20;;;17.30;;
25509;SDS011;13413;52.336;21.200;2022-10-17T11:24:01;20.80;;;17.70;;
25509;SDS011;13413;52.336;21.200;2022-10-17T11:30:54;18.80;;;16.70;;
25509;SDS011;13413;52.336;21.200;2022-10-17T11:35:38;21.30;;;17.60;;
25509;SDS011;13413;52.336;21.200;2022-10-17T11:39:10;18.90;;;16.90;;
25509;SDS011;13413;52.336;21.200;2022-10-17T11:42:51;18.50;;;16.60;;
25509;SDS011;13413;52.336;21.200;2022-10-17T11:46:14;18.50;;;16.50;;
25509;SDS011;13413;52.336;21.200;2022-10-17T11:49:39;19.60;;;17.50;;
25509;SDS011;13413;52.336;21.200;2022-10-17T11:53:04;22.00;;;16.70;;
25509;SDS011;13413;52.336;21.200;2022-10-17T11:56:33;19.30;;;16.50;;
25509;SDS011;13413;52.336;21.200;2022-10-17T12:09:22;18.80;;;16.20;;
25509;SDS011;13413;52.336;21.200;2022-10-17T12:12:49;18.10;;;15.40;;
25509;SDS011;13413;52.336;21.200;2022-10-17T12:20:30;19.10;;;16.50;;
25509;SDS011;13413;52.336;21.200;2022-10-17T12:24:03;20.60;;;15.90;;
25509;SDS011;13413;52.336;21.200;2022-10-17T12:31:41;19.40;;;16.30;;
25509;SDS011;13413;52.336;21.200;2022-10-17T12:51:07;18.20;;;16.30;;
25509;SDS011;13413;52.336;21.200;2022-10-17T12:54:42;18.50;;;16.50;;
25509;SDS011;13413;52.336;21.200;2022-10-17T12:58:17;19.90;;;15.70;;
25509;SDS011;13413;52.336;21.200;2022-10-17T13:01:37;20.40;;;16.10;;
25509;SDS011;13413;52.336;21.200;2022-10-17T13:05:04;18.30;;;16.10;;
25509;SDS011;13413;52.336;21.200;2022-10-17T13:08:44;19.30;;;16.50;;
25509;SDS011;13413;52.336;21.200;2022-10-17T13:12:09;20.60;;;16.90;;
25509;SDS011;13413;52.336;21.200;2022-10-17T13:15:38;17.70;;;15.60;;
25509;SDS011;13413;52.336;21.200;2022-10-17T13:19:16;17.40;;;15.60;;
25509;SDS011;13413;52.336;21.200;2022-10-17T13:22:42;19.70;;;16.10;;
25509;SDS011;13413;52.336;21.200;2022-10-17T13:26:14;16.10;;;14.50;;
25509;SDS011;13413;52.336;21.200;2022-10-17T13:29:47;19.90;;;16.30;;
25509;SDS011;13413;52.336;21.200;2022-10-17T13:33:30;20.00;;;17.10;;
25509;SDS011;13413;52.336;21.200;2022-10-17T13:36:52;18.80;;;15.30;;
25509;SDS011;13413;52.336;21.200;2022-10-17T13:40:21;19.50;;;16.10;;
25509;SDS011;13413;52.336;21.200;2022-10-17T13:43:55;21.00;;;16.10;;
25509;SDS011;13413;52.336;21.200;2022-10-17T13:47:23;19.30;;;16.50;;
25509;SDS011;13413;52.336;21.200;2022-10-17T13:50:46;32.90;;;17.10;;
25509;SDS011;13413;52.336;21.200;2022-10-17T13:54:31;19.20;;;15.70;;
25509;SDS011;13413;52.336;21.200;2022-10-17T13:57:53;18.70;;;15.50;;
25509;SDS011;13413;52.336;21.200;2022-10-17T14:01:13;19.00;;;15.80;;
25509;SDS011;13413;52.336;21.200;2022-10-17T14:04:34;18.70;;;15.40;;
25509;SDS011;13413;52.336;21.200;2022-10-17T14:08:13;18.30;;;15.70;;
25509;SDS011;13413;52.336;21.200;2022-10-17T14:29:23;19.00;;;16.00;;
25509;SDS011;13413;52.336;21.200;2022-10-17T14:32:59;21.00;;;16.00;;
25509;SDS011;13413;52.336;21.200;2022-10-17T14:36:28;24.30;;;16.10;;
25509;SDS011;13413;52.336;21.200;2022-10-17T14:40:05;23.50;;;16.60;;
25509;SDS011;13413;52.336;21.200;2022-10-17T14:43:32;19.10;;;15.90;;
25509;SDS011;13413;52.336;21.200;2022-10-17T14:47:01;21.70;;;16.40;;
25509;SDS011;13413;52.336;21.200;2022-10-17T14:50:30;18.80;;;15.40;;
25509;SDS011;13413;52.336;21.200;2022-10-17T14:54:16;41.20;;;18.30;;
25509;SDS011;13413;52.336;21.200;2022-10-17T14:57:41;23.10;;;17.10;;
25509;SDS011;13413;52.336;21.200;2022-10-17T15:01:03;20.30;;;17.20;;
25509;SDS011;13413;52.336;21.200;2022-10-17T15:04:38;23.10;;;16.80;;
25509;SDS011;13413;52.336;21.200;2022-10-17T15:11:33;20.40;;;17.70;;
25509;SDS011;13413;52.336;21.200;2022-10-17T15:24:13;24.30;;;17.80;;
25509;SDS011;13413;52.336;21.200;2022-10-17T15:27:33;21.00;;;17.60;;
25509;SDS011;13413;52.336;21.200;2022-10-17T15:30:53;22.90;;;18.60;;
25509;SDS011;13413;52.336;21.200;2022-10-17T15:34:26;24.10;;;18.80;;
25509;SDS011;13413;52.336;21.200;2022-10-17T15:37:59;24.20;;;18.60;;
25509;SDS011;13413;52.336;21.200;2022-10-17T15:41:21;22.90;;;18.60;;
25509;SDS011;13413;52.336;21.200;2022-10-17T15:44:55;22.00;;;18.10;;
25509;SDS011;13413;52.336;21.200;2022-10-17T15:50:11;35.20;;;19.80;;
25509;SDS011;13413;52.336;21.200;2022-10-17T15:53:30;24.00;;;18.20;;
25509;SDS011;13413;52.336;21.200;2022-10-17T15:56:56;20.50;;;18.40;;
25509;SDS011;13413;52.336;21.200;2022-10-17T16:00:23;24.80;;;19.30;;
25509;SDS011;13413;52.336;21.200;2022-10-17T16:03:54;23.70;;;20.20;;
25509;SDS011;13413;52.336;21.200;2022-10-17T16:07:13;23.80;;;20.60;;
25509;SDS011;13413;52.336;21.200;2022-10-17T16:14:12;33.20;;;24.40;;
25509;SDS011;13413;52.336;21.200;2022-10-17T16:17:44;26.90;;;22.70;;
25509;SDS011;13413;52.336;21.200;2022-10-17T16:21:03;30.80;;;23.60;;
25509;SDS011;13413;52.336;21.200;2022-10-17T16:24:34;30.70;;;23.50;;
25509;SDS011;13413;52.336;21.200;2022-10-17T16:27:54;32.30;;;22.10;;
25509;SDS011;13413;52.336;21.200;2022-10-17T16:31:20;28.50;;;24.00;;
25509;SDS011;13413;52.336;21.200;2022-10-17T16:34:40;36.20;;;27.00;;
25509;SDS011;13413;52.336;21.200;2022-10-17T16:37:59;42.90;;;33.30;;
25509;SDS011;13413;52.336;21.200;2022-10-17T16:41:19;89.30;;;59.00;;
25509;SDS011;13413;52.336;21.200;2022-10-17T16:44:55;89.20;;;59.60;;
25509;SDS011;13413;52.336;21.200;2022-10-17T16:48:12;50.10;;;39.40;;
25509;SDS011;13413;52.336;21.200;2022-10-17T16:51:32;46.80;;;34.40;;
25509;SDS011;13413;52.336;21.200;2022-10-17T16:55:13;37.40;;;29.50;;
25509;SDS011;13413;52.336;21.200;2022-10-17T16:58:33;34.00;;;25.90;;
25509;SDS011;13413;52.336;21.200;2022-10-17T17:01:59;36.40;;;28.50;;
25509;SDS011;13413;52.336;21.200;2022-10-17T17:05:26;32.10;;;27.20;;
25509;SDS011;13413;52.336;21.200;2022-10-17T17:08:58;34.60;;;29.10;;
25509;SDS011;13413;52.336;21.200;2022-10-17T17:12:19;38.10;;;29.90;;
25509;SDS011;13413;52.336;21.200;2022-10-17T17:15:42;36.70;;;29.90;;
25509;SDS011;13413;52.336;21.200;2022-10-17T17:19:17;38.40;;;29.20;;
25509;SDS011;13413;52.336;21.200;2022-10-17T17:22:44;37.20;;;29.20;;
25509;SDS011;13413;52.336;21.200;2022-10-17T17:26:05;37.40;;;28.10;;
25509;SDS011;13413;52.336;21.200;2022-10-17T17:29:40;31.60;;;28.00;;
25509;SDS011;13413;52.336;21.200;2022-10-17T17:33:13;37.70;;;29.30;;
25509;SDS011;13413;52.336;21.200;2022-10-17T17:36:33;35.00;;;29.10;;
25509;SDS011;13413;52.336;21.200;2022-10-17T17:40:16;35.30;;;30.20;;
25509;SDS011;13413;52.336;21.200;2022-10-17T17:43:36;41.00;;;30.30;;
25509;SDS011;13413;52.336;21.200;2022-10-17T17:47:03;53.00;;;32.10;;
25509;SDS011;13413;52.336;21.200;2022-10-17T17:50:30;44.40;;;30.00;;
25509;SDS011;13413;52.336;21.200;2022-10-17T17:54:05;35.00;;;30.10;;
25509;SDS011;13413;52.336;21.200;2022-10-17T18:00:50;41.20;;;33.30;;
25509;SDS011;13413;52.336;21.200;2022-10-17T18:04:23;43.50;;;34.40;;
25509;SDS011;13413;52.336;21.200;2022-10-17T18:07:43;44.10;;;33.30;;
25509;SDS011;13413;52.336;21.200;2022-10-17T18:11:03;46.20;;;33.60;;
25509;SDS011;13413;52.336;21.200;2022-10-17T18:15:04;41.90;;;33.10;;
25509;SDS011;13413;52.336;21.200;2022-10-17T18:18:24;43.80;;;32.70;;
25509;SDS011;13413;52.336;21.200;2022-10-17T18:21:44;41.60;;;32.10;;
25509;SDS011;13413;52.336;21.200;2022-10-17T18:25:17;41.60;;;32.60;;
25509;SDS011;13413;52.336;21.200;2022-10-17T18:28:49;46.50;;;34.60;;
25509;SDS011;13413;52.336;21.200;2022-10-17T18:32:07;56.60;;;38.00;;
25509;SDS011;13413;52.336;21.200;2022-10-17T18:35:34;51.60;;;39.30;;
25509;SDS011;13413;52.336;21.200;2022-10-17T18:38:52;48.50;;;37.00;;
25509;SDS011;13413;52.336;21.200;2022-10-17T18:42:11;50.00;;;38.60;;
25509;SDS011;13413;52.336;21.200;2022-10-17T18:45:37;49.70;;;36.80;;
25509;SDS011;13413;52.336;21.200;2022-10-17T18:49:23;45.20;;;33.40;;
25509;SDS011;13413;52.336;21.200;2022-10-17T18:52:47;36.50;;;30.40;;
25509;SDS011;13413;52.336;21.200;2022-10-17T18:56:05;37.30;;;30.30;;
25509;SDS011;13413;52.336;21.200;2022-10-17T18:59:37;39.90;;;31.20;;
25509;SDS011;13413;52.336;21.200;2022-10-17T19:03:08;42.40;;;31.50;;
25509;SDS011;13413;52.336;21.200;2022-10-17T19:06:27;41.80;;;32.30;;
25509;SDS011;13413;52.336;21.200;2022-10-17T19:10:00;44.30;;;33.90;;
25509;SDS011;13413;52.336;21.200;2022-10-17T19:13:18;39.80;;;30.70;;
25509;SDS011;13413;52.336;21.200;2022-10-17T19:16:38;46.40;;;31.30;;
25509;SDS011;13413;52.336;21.200;2022-10-17T19:20:19;40.80;;;31.10;;
25509;SDS011;13413;52.336;21.200;2022-10-17T19:23:40;43.00;;;32.30;;
25509;SDS011;13413;52.336;21.200;2022-10-17T19:27:00;39.60;;;30.90;;
25509;SDS011;13413;52.336;21.200;2022-10-17T19:30:26;43.10;;;32.50;;
25509;SDS011;13413;52.336;21.200;2022-10-17T19:37:28;42.20;;;31.00;;
25509;SDS011;13413;52.336;21.200;2022-10-17T19:40:47;41.30;;;28.10;;
25509;SDS011;13413;52.336;21.200;2022-10-17T19:54:18;38.70;;;30.00;;
25509;SDS011;13413;52.336;21.200;2022-10-17T19:57:44;43.50;;;30.80;;
25509;SDS011;13413;52.336;21.200;2022-10-17T20:10:05;35.80;;;27.20;;
25509;SDS011;13413;52.336;21.200;2022-10-17T20:13:25;37.30;;;28.50;;
25509;SDS011;13413;52.336;21.200;2022-10-17T20:16:45;39.80;;;28.30;;
25509;SDS011;13413;52.336;21.200;2022-10-17T20:29:24;39.20;;;28.70;;
25509;SDS011;13413;52.336;21.200;2022-10-17T20:32:57;39.80;;;27.30;;
25509;SDS011;13413;52.336;21.200;2022-10-17T20:36:16;37.40;;;27.30;;
25509;SDS011;13413;52.336;21.200;2022-10-17T20:39:50;36.50;;;27.00;;
25509;SDS011;13413;52.336;21.200;2022-10-17T20:54:02;34.30;;;26.50;;
25509;SDS011;13413;52.336;21.200;2022-10-17T20:57:27;31.90;;;25.90;;
25509;SDS011;13413;52.336;21.200;2022-10-17T21:00:46;39.80;;;26.40;;
25509;SDS011;13413;52.336;21.200;2022-10-17T21:04:05;38.90;;;26.10;;
25509;SDS011;13413;52.336;21.200;2022-10-17T21:07:30;35.00;;;25.90;;
25509;SDS011;13413;52.336;21.200;2022-10-17T21:10:49;35.20;;;25.00;;
25509;SDS011;13413;52.336;21.200;2022-10-17T21:14:22;40.40;;;26.60;;
25509;SDS011;13413;52.336;21.200;2022-10-17T21:17:55;34.50;;;25.90;;
25509;SDS011;13413;52.336;21.200;2022-10-17T21:21:16;31.80;;;25.10;;
25509;SDS011;13413;52.336;21.200;2022-10-17T21:24:49;34.20;;;26.30;;
25509;SDS011;13413;52.336;21.200;2022-10-17T21:28:22;34.30;;;24.70;;
25509;SDS011;13413;52.336;21.200;2022-10-17T21:31:41;39.90;;;27.90;;
25509;SDS011;13413;52.336;21.200;2022-10-17T21:35:13;35.80;;;26.70;;
25509;SDS011;13413;52.336;21.200;2022-10-17T21:38:33;36.50;;;26.60;;
25509;SDS011;13413;52.336;21.200;2022-10-17T21:41:51;47.40;;;33.00;;
25509;SDS011;13413;52.336;21.200;2022-10-17T21:45:17;42.20;;;29.30;;
25509;SDS011;13413;52.336;21.200;2022-10-17T21:48:35;48.10;;;31.60;;
25509;SDS011;13413;52.336;21.200;2022-10-17T21:52:02;48.60;;;32.80;;
25509;SDS011;13413;52.336;21.200;2022-10-17T21:55:26;42.80;;;30.40;;
25509;SDS011;13413;52.336;21.200;2022-10-17T22:00:20;48.70;;;34.90;;
25509;SDS011;13413;52.336;21.200;2022-10-17T22:03:40;46.90;;;34.20;;
25509;SDS011;13413;52.336;21.200;2022-10-17T22:07:02;35.50;;;28.20;;
25509;SDS011;13413;52.336;21.200;2022-10-17T22:10:28;42.50;;;29.60;;
25509;SDS011;13413;52.336;21.200;2022-10-17T22:13:51;34.40;;;25.50;;
25509;SDS011;13413;52.336;21.200;2022-10-17T22:17:13;38.30;;;27.00;;
25509;SDS011;13413;52.336;21.200;2022-10-17T22:20:40;33.50;;;25.80;;
25509;SDS011;13413;52.336;21.200;2022-10-17T22:24:14;35.10;;;26.50;;
25509;SDS011;13413;52.336;21.200;2022-10-17T22:27:45;36.00;;;26.50;;
25509;SDS011;13413;52.336;21.200;2022-10-17T22:31:05;37.20;;;26.60;;
25509;SDS011;13413;52.336;21.200;2022-10-17T22:34:26;34.40;;;26.60;;
25509;SDS011;13413;52.336;21.200;2022-10-17T22:38:00;41.30;;;26.90;;
25509;SDS011;13413;52.336;21.200;2022-10-17T22:41:20;37.00;;;26.60;;
25509;SDS011;13413;52.336;21.200;2022-10-17T22:53:59;31.70;;;25.30;;
25509;SDS011;13413;52.336;21.200;2022-10-17T22:57:19;39.00;;;27.90;;
25509;SDS011;13413;52.336;21.200;2022-10-17T23:00:43;36.50;;;26.10;;
25509;SDS011;13413;52.336;21.200;2022-10-17T23:04:02;36.70;;;26.70;;
25509;SDS011;13413;52.336;21.200;2022-10-17T23:07:29;31.90;;;26.10;;
25509;SDS011;13413;52.336;21.200;2022-10-17T23:10:50;39.30;;;25.60;;
25509;SDS011;13413;52.336;21.200;2022-10-17T23:21:44;33.80;;;25.30;;
25509;SDS011;13413;52.336;21.200;2022-10-17T23:25:05;38.00;;;27.10;;
25509;SDS011;13413;52.336;21.200;2022-10-17T23:28:39;33.70;;;25.60;;
25509;SDS011;13413;52.336;21.200;2022-10-17T23:31:59;36.20;;;25.70;;
25509;SDS011;13413;52.336;21.200;2022-10-17T23:35:26;34.80;;;25.80;;
25509;SDS011;13413;52.336;21.200;2022-10-17T23:38:59;37.60;;;26.00;;
25509;SDS011;13413;52.336;21.200;2022-10-17T23:42:25;38.70;;;26.00;;
25509;SDS011;13413;52.336;21.200;2022-10-17T23:45:45;36.60;;;25.90;;
25509;SDS011;13413;52.336;21.200;2022-10-17T23:49:19;33.80;;;25.70;;
25509;SDS011;13413;52.336;21.200;2022-10-17T23:52:45;35.90;;;27.00;;
25509;SDS011;13413;52.336;21.200;2022-10-17T23:56:06;34.90;;;26.20;;
25509;SDS011;13413;52.336;21.200;2022-10-17T23:59:39;34.90;;;25.40;;
